createdAt,value
2017-09-09T00:00:43.844Z,0
2017-09-09T00:01:45.724Z,0
2017-09-09T00:02:47.608Z,0
2017-09-09T00:04:01.818Z,0
2017-09-09T00:05:03.703Z,0
2017-09-09T00:06:05.589Z,0
2017-09-09T00:07:07.471Z,0
2017-09-09T00:08:09.305Z,0
2017-09-09T00:09:11.139Z,0
2017-09-09T00:10:13.022Z,0
2017-09-09T00:11:14.903Z,0
2017-09-09T00:12:16.784Z,0
2017-09-09T00:13:30.945Z,0
2017-09-09T00:14:32.828Z,0
2017-09-09T00:15:34.715Z,0
2017-09-09T00:16:36.598Z,0
2017-09-09T00:17:38.422Z,0
2017-09-09T00:18:40.245Z,0
2017-09-09T00:19:42.089Z,0
2017-09-09T00:20:43.919Z,0
2017-09-09T00:21:45.756Z,0
2017-09-09T00:22:59.909Z,0
2017-09-09T00:24:01.794Z,0
2017-09-09T00:25:03.680Z,0
2017-09-09T00:26:05.562Z,0
2017-09-09T00:27:07.383Z,0
2017-09-09T00:28:09.206Z,0
2017-09-09T00:29:11.089Z,0
2017-09-09T00:30:12.969Z,0
2017-09-09T00:31:14.854Z,0
2017-09-09T00:32:29.010Z,0
2017-09-09T00:33:30.894Z,0
2017-09-09T00:34:32.778Z,0
2017-09-09T00:35:34.661Z,0
2017-09-09T00:36:36.484Z,0
2017-09-09T00:37:38.316Z,0
2017-09-09T00:38:40.201Z,0
2017-09-09T00:39:42.083Z,0
2017-09-09T00:40:43.976Z,0
2017-09-09T00:41:58.136Z,0
2017-09-09T00:43:00.020Z,0
2017-09-09T00:44:01.906Z,0
2017-09-09T00:45:03.790Z,0
2017-09-09T00:46:05.613Z,0
2017-09-09T00:47:07.433Z,0
2017-09-09T00:48:09.326Z,0
2017-09-09T00:49:11.212Z,0
2017-09-09T00:50:13.090Z,0
2017-09-09T00:51:27.247Z,0
2017-09-09T00:52:29.130Z,0
2017-09-09T00:53:31.016Z,0
2017-09-09T00:54:32.898Z,0
2017-09-09T00:55:34.724Z,0
2017-09-09T00:56:36.548Z,0
2017-09-09T00:57:38.432Z,0
2017-09-09T00:58:40.312Z,0
2017-09-09T00:59:42.196Z,0
2017-09-09T01:00:56.353Z,0
2017-09-09T01:01:58.242Z,0
2017-09-09T01:03:00.127Z,0
2017-09-09T01:04:02.009Z,0
2017-09-09T01:05:03.832Z,0
2017-09-09T01:06:05.655Z,0
2017-09-09T01:07:07.537Z,0
2017-09-09T01:08:09.419Z,0
2017-09-09T01:09:11.304Z,0
2017-09-09T01:10:25.466Z,0
2017-09-09T01:11:27.358Z,0
2017-09-09T01:12:29.241Z,0
2017-09-09T01:13:31.125Z,0
2017-09-09T01:14:32.953Z,0
2017-09-09T01:15:34.768Z,0
2017-09-09T01:16:36.650Z,0
2017-09-09T01:17:38.534Z,0
2017-09-09T01:18:40.413Z,0
2017-09-09T01:19:54.569Z,0
2017-09-09T01:20:56.452Z,0
2017-09-09T01:21:58.337Z,0
2017-09-09T01:23:00.220Z,0
2017-09-09T01:24:02.045Z,0
2017-09-09T01:25:03.864Z,0
2017-09-09T01:26:05.746Z,0
2017-09-09T01:27:07.642Z,0
2017-09-09T01:28:09.534Z,0
2017-09-09T01:29:23.689Z,0
2017-09-09T01:30:25.592Z,0
2017-09-09T01:31:27.466Z,0
2017-09-09T01:32:29.345Z,0
2017-09-09T01:33:31.169Z,0
2017-09-09T01:34:32.988Z,0
2017-09-09T01:35:34.881Z,0
2017-09-09T01:36:36.766Z,0
2017-09-09T01:37:38.646Z,0
2017-09-09T01:38:52.800Z,0
2017-09-09T01:39:54.694Z,0
2017-09-09T01:40:56.577Z,0
2017-09-09T01:41:58.458Z,0
2017-09-09T01:43:00.282Z,0
2017-09-09T01:44:02.100Z,0
2017-09-09T01:45:03.980Z,0
2017-09-09T01:46:05.861Z,0
2017-09-09T01:47:07.753Z,0
2017-09-09T01:48:21.907Z,0
2017-09-09T01:49:23.789Z,0
2017-09-09T01:50:25.677Z,0
2017-09-09T01:51:27.560Z,0
2017-09-09T01:52:29.382Z,0
2017-09-09T01:53:31.201Z,0
2017-09-09T01:54:33.093Z,0
2017-09-09T01:55:34.979Z,0
2017-09-09T01:56:36.859Z,0
2017-09-09T01:57:51.062Z,0
2017-09-09T01:58:52.946Z,0
2017-09-09T01:59:54.829Z,0
2017-09-09T02:00:56.711Z,0
2017-09-09T02:01:58.538Z,0
2017-09-09T02:03:00.355Z,0
2017-09-09T02:04:02.247Z,0
2017-09-09T02:05:04.133Z,0
2017-09-09T02:06:06.011Z,0
2017-09-09T02:07:20.167Z,0
2017-09-09T02:08:22.048Z,0
2017-09-09T02:09:23.932Z,0
2017-09-09T02:10:25.816Z,0
2017-09-09T02:11:27.642Z,0
2017-09-09T02:12:29.460Z,0
2017-09-09T02:13:31.345Z,0
2017-09-09T02:14:33.229Z,0
2017-09-09T02:15:35.121Z,0
2017-09-09T02:16:49.275Z,0
2017-09-09T02:17:51.169Z,0
2017-09-09T02:18:53.052Z,0
2017-09-09T02:19:54.936Z,0
2017-09-09T02:20:56.761Z,0
2017-09-09T02:21:58.581Z,0
2017-09-09T02:23:00.462Z,0
2017-09-09T02:24:02.346Z,0
2017-09-09T02:25:04.228Z,0
2017-09-09T02:26:18.385Z,0
2017-09-09T02:27:20.272Z,0
2017-09-09T02:28:22.155Z,0
2017-09-09T02:29:24.036Z,0
2017-09-09T02:30:25.867Z,0
2017-09-09T02:31:27.698Z,0
2017-09-09T02:32:29.577Z,0
2017-09-09T02:33:31.460Z,0
2017-09-09T02:34:33.341Z,0
2017-09-09T02:35:47.497Z,0
2017-09-09T02:36:49.390Z,0
2017-09-09T02:37:51.275Z,0
2017-09-09T02:38:53.162Z,0
2017-09-09T02:39:54.978Z,0
2017-09-09T02:40:56.796Z,0
2017-09-09T02:41:58.677Z,0
2017-09-09T02:43:00.562Z,0
2017-09-09T02:44:02.444Z,0
2017-09-09T02:45:16.599Z,0
2017-09-09T02:46:18.481Z,0
2017-09-09T02:47:20.367Z,0
2017-09-09T02:48:22.247Z,0
2017-09-09T02:49:24.088Z,0
2017-09-09T02:50:25.899Z,0
2017-09-09T02:51:27.792Z,0
2017-09-09T02:52:29.681Z,0
2017-09-09T02:53:31.560Z,0
2017-09-09T02:54:45.726Z,0
2017-09-09T02:55:47.608Z,0
2017-09-09T02:56:49.490Z,0
2017-09-09T02:57:51.381Z,0
2017-09-09T02:58:53.206Z,0
2017-09-09T02:59:55.023Z,0
2017-09-09T03:00:56.913Z,0
2017-09-09T03:01:58.798Z,0
2017-09-09T03:03:00.680Z,0
2017-09-09T03:04:14.845Z,0
2017-09-09T03:05:16.736Z,0
2017-09-09T03:06:18.620Z,0
2017-09-09T03:07:20.500Z,0
2017-09-09T03:08:22.321Z,0
2017-09-09T03:09:24.149Z,0
2017-09-09T03:10:26.041Z,0
2017-09-09T03:11:27.926Z,0
2017-09-09T03:12:29.819Z,0
2017-09-09T03:13:44.024Z,0
2017-09-09T03:14:45.913Z,0
2017-09-09T03:15:47.795Z,0
2017-09-09T03:16:49.678Z,0
2017-09-09T03:17:51.501Z,0
2017-09-09T03:18:53.320Z,0
2017-09-09T03:19:55.198Z,0
2017-09-09T03:20:57.083Z,0
2017-09-09T03:21:58.965Z,0
2017-09-09T03:23:13.126Z,0
2017-09-09T03:24:15.009Z,0
2017-09-09T03:25:16.895Z,0
2017-09-09T03:26:18.776Z,0
2017-09-09T03:27:20.600Z,0
2017-09-09T03:28:22.418Z,0
2017-09-09T03:29:24.309Z,0
2017-09-09T03:30:26.200Z,0
2017-09-09T03:31:28.074Z,0
2017-09-09T03:32:42.228Z,0
2017-09-09T03:33:44.123Z,0
2017-09-09T03:34:46.007Z,0
2017-09-09T03:35:47.890Z,0
2017-09-09T03:36:49.712Z,0
2017-09-09T03:37:51.533Z,0
2017-09-09T03:38:53.413Z,0
2017-09-09T03:39:55.295Z,0
2017-09-09T03:40:57.188Z,0
2017-09-09T03:42:11.347Z,0
2017-09-09T03:43:13.241Z,0
2017-09-09T03:44:15.123Z,0
2017-09-09T03:45:17.004Z,0
2017-09-09T03:46:18.833Z,0
2017-09-09T03:47:20.646Z,0
2017-09-09T03:48:22.527Z,0
2017-09-09T03:49:24.412Z,0
2017-09-09T03:50:26.294Z,0
2017-09-09T03:51:40.449Z,0
2017-09-09T03:52:42.343Z,0
2017-09-09T03:53:44.225Z,0
2017-09-09T03:54:46.108Z,0
2017-09-09T03:55:47.929Z,0
2017-09-09T03:56:49.746Z,0
2017-09-09T03:57:51.634Z,4
2017-09-09T03:58:53.519Z,4
2017-09-09T03:59:55.399Z,4
2017-09-09T04:01:09.603Z,4
2017-09-09T04:02:11.502Z,4
2017-09-09T04:03:13.382Z,8
2017-09-09T04:04:15.281Z,8
2017-09-09T04:05:17.094Z,8
2017-09-09T04:06:18.913Z,12
2017-09-09T04:07:20.795Z,12
2017-09-09T04:08:22.691Z,16
2017-09-09T04:09:24.573Z,16
2017-09-09T04:10:38.728Z,20
2017-09-09T04:11:40.612Z,24
2017-09-09T04:12:42.496Z,28
2017-09-09T04:13:44.380Z,32
2017-09-09T04:14:46.204Z,40
2017-09-09T04:15:48.025Z,44
2017-09-09T04:16:49.917Z,52
2017-09-09T04:17:51.802Z,56
2017-09-09T04:18:53.684Z,64
2017-09-09T04:20:07.841Z,76
2017-09-09T04:21:09.728Z,84
2017-09-09T04:22:11.615Z,96
2017-09-09T04:23:13.499Z,108
2017-09-09T04:24:15.338Z,120
2017-09-09T04:25:17.158Z,128
2017-09-09T04:26:19.041Z,144
2017-09-09T04:27:20.929Z,160
2017-09-09T04:28:22.811Z,180
2017-09-09T04:29:36.970Z,200
2017-09-09T04:30:38.856Z,220
2017-09-09T04:31:40.754Z,236
2017-09-09T04:32:42.662Z,260
2017-09-09T04:33:44.486Z,280
2017-09-09T04:34:46.305Z,300
2017-09-09T04:35:48.199Z,324
2017-09-09T04:36:50.085Z,348
2017-09-09T04:37:51.967Z,372
2017-09-09T04:39:06.136Z,412
2017-09-09T04:40:08.021Z,444
2017-09-09T04:41:09.921Z,484
2017-09-09T04:42:11.805Z,524
2017-09-09T04:43:13.632Z,564
2017-09-09T04:44:15.455Z,612
2017-09-09T04:45:17.339Z,660
2017-09-09T04:46:19.229Z,712
2017-09-09T04:47:21.112Z,772
2017-09-09T04:48:35.268Z,848
2017-09-09T04:49:37.153Z,912
2017-09-09T04:50:39.045Z,980
2017-09-09T04:51:40.929Z,1044
2017-09-09T04:52:42.768Z,1112
2017-09-09T04:53:44.591Z,1180
2017-09-09T04:54:46.478Z,1256
2017-09-09T04:55:48.366Z,1336
2017-09-09T04:56:50.247Z,1408
2017-09-09T04:58:04.418Z,1488
2017-09-09T04:59:06.305Z,1556
2017-09-09T05:00:08.204Z,1624
2017-09-09T05:01:10.093Z,1688
2017-09-09T05:02:11.920Z,1744
2017-09-09T05:03:13.743Z,1804
2017-09-09T05:04:15.628Z,1864
2017-09-09T05:05:17.521Z,1904
2017-09-09T05:06:19.405Z,1956
2017-09-09T05:07:33.566Z,2036
2017-09-09T05:08:35.452Z,2128
2017-09-09T05:09:37.352Z,2220
2017-09-09T05:10:39.248Z,2300
2017-09-09T05:11:41.075Z,2380
2017-09-09T05:12:42.900Z,2444
2017-09-09T05:13:44.787Z,2508
2017-09-09T05:14:46.676Z,2572
2017-09-09T05:15:48.561Z,2640
2017-09-09T05:17:02.771Z,2724
2017-09-09T05:18:04.660Z,2788
2017-09-09T05:19:06.549Z,2856
2017-09-09T05:20:08.439Z,2932
2017-09-09T05:21:10.274Z,3016
2017-09-09T05:22:12.088Z,3112
2017-09-09T05:23:14.028Z,3200
2017-09-09T05:24:15.907Z,3292
2017-09-09T05:25:17.797Z,3396
2017-09-09T05:26:31.958Z,3500
2017-09-09T05:27:33.845Z,3564
2017-09-09T05:28:35.754Z,3616
2017-09-09T05:29:37.635Z,3692
2017-09-09T05:30:39.462Z,3756
2017-09-09T05:31:41.291Z,3800
2017-09-09T05:32:43.178Z,3812
2017-09-09T05:33:45.072Z,3816
2017-09-09T05:34:46.913Z,3864
2017-09-09T05:36:01.074Z,3928
2017-09-09T05:37:02.961Z,3980
2017-09-09T05:38:04.849Z,4044
2017-09-09T05:39:06.737Z,4100
2017-09-09T05:40:08.566Z,4140
2017-09-09T05:41:10.399Z,4132
2017-09-09T05:42:12.285Z,4140
2017-09-09T05:43:14.171Z,4132
2017-09-09T05:44:16.070Z,4132
2017-09-09T05:45:30.236Z,4136
2017-09-09T05:46:32.116Z,4164
2017-09-09T05:47:34.006Z,4236
2017-09-09T05:48:35.890Z,4336
2017-09-09T05:49:37.717Z,4544
2017-09-09T05:50:39.552Z,4836
2017-09-09T05:51:41.438Z,5100
2017-09-09T05:52:43.328Z,5296
2017-09-09T05:53:45.217Z,5456
2017-09-09T05:54:59.379Z,5564
2017-09-09T05:56:01.266Z,5528
2017-09-09T05:57:03.154Z,5420
2017-09-09T05:58:05.043Z,5344
2017-09-09T05:59:06.871Z,5364
2017-09-09T06:00:08.697Z,5436
2017-09-09T06:01:10.581Z,5528
2017-09-09T06:02:12.471Z,5624
2017-09-09T06:03:14.357Z,5808
2017-09-09T06:04:28.530Z,6076
2017-09-09T06:05:30.417Z,6260
2017-09-09T06:06:32.306Z,6320
2017-09-09T06:07:34.195Z,6280
2017-09-09T06:08:36.026Z,6208
2017-09-09T06:09:37.850Z,6088
2017-09-09T06:10:39.737Z,5948
2017-09-09T06:11:41.627Z,5832
2017-09-09T06:12:43.515Z,5764
2017-09-09T06:13:57.675Z,5692
2017-09-09T06:14:59.563Z,5652
2017-09-09T06:16:01.454Z,5632
2017-09-09T06:17:03.341Z,5656
2017-09-09T06:18:05.174Z,5676
2017-09-09T06:19:06.999Z,5684
2017-09-09T06:20:08.886Z,5712
2017-09-09T06:21:10.775Z,5732
2017-09-09T06:22:12.668Z,5768
2017-09-09T06:23:26.877Z,5864
2017-09-09T06:24:28.767Z,6004
2017-09-09T06:25:30.655Z,6188
2017-09-09T06:26:32.550Z,6392
2017-09-09T06:27:34.380Z,6592
2017-09-09T06:28:36.205Z,6712
2017-09-09T06:29:38.103Z,6724
2017-09-09T06:30:40.000Z,6712
2017-09-09T06:31:41.887Z,6656
2017-09-09T06:32:56.098Z,6560
2017-09-09T06:33:57.989Z,6448
2017-09-09T06:34:59.879Z,6308
2017-09-09T06:36:01.769Z,6168
2017-09-09T06:37:03.596Z,6032
2017-09-09T06:38:05.422Z,5908
2017-09-09T06:39:07.308Z,5788
2017-09-09T06:40:09.199Z,5664
2017-09-09T06:41:11.111Z,5608
2017-09-09T06:42:25.281Z,5620
2017-09-09T06:43:27.170Z,5708
2017-09-09T06:44:29.068Z,5840
2017-09-09T06:45:30.969Z,5992
2017-09-09T06:46:32.797Z,6168
2017-09-09T06:47:34.626Z,6296
2017-09-09T06:48:36.513Z,6352
2017-09-09T06:49:38.405Z,6368
2017-09-09T06:50:40.294Z,6348
2017-09-09T06:51:54.469Z,6304
2017-09-09T06:52:56.358Z,6276
2017-09-09T06:53:58.247Z,6272
2017-09-09T06:55:00.138Z,6344
2017-09-09T06:56:01.968Z,6524
2017-09-09T06:57:03.793Z,6756
2017-09-09T06:58:05.681Z,7028
2017-09-09T06:59:07.574Z,7316
2017-09-09T07:00:09.427Z,7596
2017-09-09T07:01:23.586Z,7888
2017-09-09T07:02:25.476Z,8048
2017-09-09T07:03:27.374Z,8212
2017-09-09T07:04:29.291Z,8316
2017-09-09T07:05:31.091Z,8288
2017-09-09T07:06:32.918Z,8320
2017-09-09T07:07:34.822Z,8476
2017-09-09T07:08:36.722Z,8584
2017-09-09T07:09:38.610Z,8588
2017-09-09T07:10:52.796Z,8540
2017-09-09T07:11:54.681Z,8536
2017-09-09T07:12:56.571Z,8576
2017-09-09T07:13:58.462Z,8616
2017-09-09T07:15:00.292Z,8588
2017-09-09T07:16:02.118Z,8464
2017-09-09T07:17:04.006Z,8340
2017-09-09T07:18:05.896Z,8280
2017-09-09T07:19:07.785Z,8220
2017-09-09T07:20:21.959Z,8064
2017-09-09T07:21:24.193Z,7840
2017-09-09T07:22:26.064Z,7640
2017-09-09T07:23:27.958Z,7472
2017-09-09T07:24:29.790Z,7336
2017-09-09T07:25:31.615Z,7172
2017-09-09T07:26:33.519Z,7032
2017-09-09T07:27:35.412Z,6972
2017-09-09T07:28:37.339Z,6944
2017-09-09T07:29:51.504Z,6972
2017-09-09T07:30:53.395Z,6988
2017-09-09T07:31:55.285Z,7028
2017-09-09T07:32:57.173Z,7036
2017-09-09T07:33:59.005Z,6984
2017-09-09T07:35:00.830Z,6920
2017-09-09T07:36:02.719Z,6960
2017-09-09T07:37:04.608Z,7040
2017-09-09T07:38:06.502Z,7216
2017-09-09T07:39:20.793Z,7400
2017-09-09T07:40:22.684Z,7532
2017-09-09T07:41:24.587Z,7748
2017-09-09T07:42:26.469Z,7868
2017-09-09T07:43:28.310Z,7948
2017-09-09T07:44:30.129Z,8072
2017-09-09T07:45:32.018Z,8216
2017-09-09T07:46:33.909Z,8448
2017-09-09T07:47:35.799Z,8628
2017-09-09T07:48:49.966Z,8484
2017-09-09T07:49:51.854Z,8500
2017-09-09T07:50:53.756Z,8632
2017-09-09T07:51:55.647Z,8816
2017-09-09T07:52:57.477Z,9044
2017-09-09T07:53:59.303Z,9256
2017-09-09T07:55:01.198Z,9432
2017-09-09T07:56:03.115Z,9544
2017-09-09T07:57:04.999Z,9924
2017-09-09T07:58:19.163Z,10776
2017-09-09T07:59:21.052Z,11376
2017-09-09T08:00:22.955Z,11804
2017-09-09T08:01:24.848Z,11956
2017-09-09T08:02:26.679Z,11924
2017-09-09T08:03:28.508Z,11792
2017-09-09T08:04:30.400Z,11772
2017-09-09T08:05:32.295Z,11816
2017-09-09T08:06:34.186Z,11828
2017-09-09T08:07:48.353Z,11900
2017-09-09T08:08:50.246Z,11940
2017-09-09T08:09:52.138Z,11848
2017-09-09T08:10:54.040Z,11752
2017-09-09T08:11:55.874Z,11652
2017-09-09T08:12:57.707Z,11592
2017-09-09T08:13:59.643Z,11488
2017-09-09T08:15:01.503Z,11396
2017-09-09T08:16:03.737Z,11376
2017-09-09T08:17:17.890Z,11484
2017-09-09T08:18:19.780Z,11852
2017-09-09T08:19:21.675Z,12236
2017-09-09T08:20:23.581Z,12476
2017-09-09T08:21:25.419Z,12600
2017-09-09T08:22:27.253Z,12216
2017-09-09T08:23:29.144Z,11784
2017-09-09T08:24:31.038Z,11444
2017-09-09T08:25:32.929Z,11080
2017-09-09T08:26:47.097Z,10664
2017-09-09T08:27:48.988Z,10492
2017-09-09T08:28:50.886Z,10384
2017-09-09T08:29:52.784Z,10232
2017-09-09T08:30:54.617Z,10316
2017-09-09T08:31:56.450Z,10480
2017-09-09T08:32:58.397Z,10488
2017-09-09T08:34:00.261Z,10728
2017-09-09T08:35:02.466Z,11224
2017-09-09T08:36:16.699Z,12172
2017-09-09T08:37:18.591Z,12700
2017-09-09T08:38:20.486Z,12960
2017-09-09T08:39:22.380Z,13008
2017-09-09T08:40:24.316Z,12864
2017-09-09T08:41:26.199Z,12912
2017-09-09T08:42:28.085Z,12600
2017-09-09T08:43:30.014Z,12356
2017-09-09T08:44:31.907Z,11940
2017-09-09T08:45:46.079Z,11220
2017-09-09T08:46:47.978Z,10660
2017-09-09T08:47:49.873Z,10128
2017-09-09T08:48:51.767Z,9716
2017-09-09T08:49:53.601Z,9432
2017-09-09T08:50:55.431Z,9124
2017-09-09T08:51:57.324Z,9012
2017-09-09T08:52:59.231Z,8876
2017-09-09T08:54:01.123Z,8776
2017-09-09T08:55:15.292Z,8840
2017-09-09T08:56:17.192Z,9012
2017-09-09T08:57:19.085Z,9220
2017-09-09T08:58:20.980Z,9520
2017-09-09T08:59:22.811Z,9400
2017-09-09T09:00:24.643Z,9368
2017-09-09T09:01:26.536Z,9576
2017-09-09T09:02:28.430Z,9816
2017-09-09T09:03:30.326Z,10152
2017-09-09T09:04:44.490Z,10572
2017-09-09T09:05:46.386Z,10876
2017-09-09T09:06:48.284Z,11060
2017-09-09T09:07:50.179Z,11060
2017-09-09T09:08:52.012Z,10892
2017-09-09T09:09:53.844Z,10544
2017-09-09T09:10:55.751Z,10188
2017-09-09T09:11:57.640Z,9944
2017-09-09T09:12:59.538Z,9924
2017-09-09T09:14:13.705Z,10328
2017-09-09T09:15:15.626Z,10440
2017-09-09T09:16:17.498Z,10340
2017-09-09T09:17:19.395Z,10016
2017-09-09T09:18:21.231Z,9544
2017-09-09T09:19:23.060Z,9332
2017-09-09T09:20:24.954Z,9352
2017-09-09T09:21:26.849Z,9568
2017-09-09T09:22:28.743Z,10128
2017-09-09T09:23:42.958Z,10448
2017-09-09T09:24:44.857Z,10604
2017-09-09T09:25:46.758Z,10648
2017-09-09T09:26:48.652Z,10588
2017-09-09T09:27:50.489Z,10492
2017-09-09T09:28:52.322Z,10304
2017-09-09T09:29:54.215Z,10116
2017-09-09T09:30:56.110Z,9888
2017-09-09T09:31:58.003Z,9684
2017-09-09T09:33:12.172Z,9584
2017-09-09T09:34:14.066Z,9680
2017-09-09T09:35:15.958Z,9808
2017-09-09T09:36:17.850Z,9784
2017-09-09T09:37:19.700Z,9692
2017-09-09T09:38:21.515Z,9840
2017-09-09T09:39:23.407Z,10244
2017-09-09T09:40:25.303Z,10696
2017-09-09T09:41:27.208Z,10868
2017-09-09T09:42:41.378Z,11176
2017-09-09T09:43:43.271Z,11668
2017-09-09T09:44:45.168Z,11844
2017-09-09T09:45:47.063Z,12140
2017-09-09T09:46:48.897Z,12472
2017-09-09T09:47:50.729Z,12632
2017-09-09T09:48:52.633Z,12592
2017-09-09T09:49:54.528Z,12608
2017-09-09T09:50:56.426Z,12588
2017-09-09T09:52:10.585Z,12744
2017-09-09T09:53:12.481Z,12856
2017-09-09T09:54:14.377Z,12848
2017-09-09T09:55:16.297Z,12836
2017-09-09T09:56:18.151Z,12696
2017-09-09T09:57:19.984Z,12740
2017-09-09T09:58:21.816Z,13056
2017-09-09T09:59:23.711Z,13072
2017-09-09T10:00:25.605Z,13132
2017-09-09T10:01:39.837Z,12896
2017-09-09T10:02:41.735Z,12784
2017-09-09T10:03:43.641Z,12796
2017-09-09T10:04:45.543Z,12780
2017-09-09T10:05:47.367Z,12572
2017-09-09T10:06:49.203Z,12528
2017-09-09T10:07:51.094Z,12560
2017-09-09T10:08:52.992Z,12572
2017-09-09T10:09:54.883Z,12752
2017-09-09T10:11:09.053Z,13004
2017-09-09T10:12:10.946Z,13016
2017-09-09T10:13:12.845Z,13228
2017-09-09T10:14:14.738Z,13172
2017-09-09T10:15:16.572Z,13220
2017-09-09T10:16:18.404Z,13300
2017-09-09T10:17:20.301Z,13360
2017-09-09T10:18:22.195Z,13204
2017-09-09T10:19:24.117Z,13124
2017-09-09T10:20:38.277Z,12992
2017-09-09T10:21:40.197Z,13028
2017-09-09T10:22:42.101Z,13036
2017-09-09T10:23:43.995Z,13008
2017-09-09T10:24:45.834Z,12700
2017-09-09T10:25:47.671Z,12376
2017-09-09T10:26:49.566Z,12288
2017-09-09T10:27:51.511Z,12152
2017-09-09T10:28:53.412Z,11796
2017-09-09T10:30:07.587Z,11420
2017-09-09T10:31:09.494Z,11248
2017-09-09T10:32:11.389Z,11388
2017-09-09T10:33:13.319Z,11704
2017-09-09T10:34:15.152Z,11996
2017-09-09T10:35:17.009Z,12252
2017-09-09T10:36:18.927Z,12184
2017-09-09T10:37:20.830Z,11684
2017-09-09T10:38:22.723Z,11116
2017-09-09T10:39:36.903Z,10716
2017-09-09T10:40:38.802Z,10700
2017-09-09T10:41:40.711Z,10928
2017-09-09T10:42:42.603Z,11272
2017-09-09T10:43:44.438Z,11732
2017-09-09T10:44:46.272Z,12196
2017-09-09T10:45:48.164Z,12548
2017-09-09T10:46:50.091Z,12616
2017-09-09T10:47:51.994Z,12536
2017-09-09T10:49:06.158Z,12204
2017-09-09T10:50:08.057Z,11828
2017-09-09T10:51:09.954Z,11500
2017-09-09T10:52:11.884Z,11112
2017-09-09T10:53:13.747Z,10740
2017-09-09T10:54:15.577Z,10792
2017-09-09T10:55:17.500Z,10640
2017-09-09T10:56:19.426Z,10552
2017-09-09T10:57:21.293Z,10568
2017-09-09T10:58:35.473Z,10444
2017-09-09T10:59:37.363Z,10376
2017-09-09T11:00:39.265Z,10508
2017-09-09T11:01:41.518Z,10608
2017-09-09T11:02:43.321Z,10412
2017-09-09T11:03:45.152Z,10028
2017-09-09T11:04:47.051Z,9976
2017-09-09T11:05:48.951Z,10156
2017-09-09T11:06:50.846Z,10280
2017-09-09T11:08:05.040Z,10236
2017-09-09T11:09:06.944Z,10052
2017-09-09T11:10:08.833Z,9936
2017-09-09T11:11:10.731Z,10164
2017-09-09T11:12:12.569Z,10648
2017-09-09T11:13:14.410Z,11120
2017-09-09T11:14:16.298Z,11416
2017-09-09T11:15:18.194Z,11656
2017-09-09T11:16:20.093Z,11852
2017-09-09T11:17:34.268Z,12140
2017-09-09T11:18:36.159Z,12600
2017-09-09T11:19:38.057Z,12820
2017-09-09T11:20:39.957Z,13032
2017-09-09T11:21:41.792Z,13364
2017-09-09T11:22:43.625Z,13712
2017-09-09T11:23:45.521Z,13984
2017-09-09T11:24:47.425Z,14232
2017-09-09T11:25:49.318Z,14552
2017-09-09T11:27:03.490Z,14588
2017-09-09T11:28:05.385Z,14240
2017-09-09T11:29:07.282Z,13864
2017-09-09T11:30:09.187Z,13780
2017-09-09T11:31:11.035Z,13828
2017-09-09T11:32:12.873Z,13852
2017-09-09T11:33:14.774Z,13872
2017-09-09T11:34:16.682Z,13820
2017-09-09T11:35:18.581Z,13852
2017-09-09T11:36:32.751Z,13816
2017-09-09T11:37:34.673Z,13740
2017-09-09T11:38:36.535Z,13684
2017-09-09T11:39:38.437Z,13564
2017-09-09T11:40:40.272Z,13336
2017-09-09T11:41:42.106Z,13168
2017-09-09T11:42:44.003Z,13128
2017-09-09T11:43:45.907Z,13116
2017-09-09T11:44:47.810Z,13120
2017-09-09T11:46:01.984Z,13320
2017-09-09T11:47:03.886Z,13420
2017-09-09T11:48:05.787Z,13488
2017-09-09T11:49:07.700Z,13464
2017-09-09T11:50:09.534Z,13404
2017-09-09T11:51:11.376Z,13292
2017-09-09T11:52:13.275Z,13300
2017-09-09T11:53:15.182Z,13424
2017-09-09T11:54:17.097Z,13516
2017-09-09T11:55:31.265Z,13508
2017-09-09T11:56:33.167Z,13284
2017-09-09T11:57:35.069Z,13096
2017-09-09T11:58:36.965Z,13148
2017-09-09T11:59:38.799Z,13312
2017-09-09T12:00:40.632Z,13180
2017-09-09T12:01:42.531Z,13196
2017-09-09T12:02:44.434Z,13288
2017-09-09T12:03:46.337Z,13532
2017-09-09T12:05:00.503Z,13616
2017-09-09T12:06:02.401Z,13612
2017-09-09T12:07:04.300Z,13756
2017-09-09T12:08:06.242Z,13892
2017-09-09T12:09:08.050Z,14024
2017-09-09T12:10:09.885Z,13972
2017-09-09T12:11:11.802Z,13868
2017-09-09T12:12:13.703Z,13928
2017-09-09T12:13:15.599Z,14176
2017-09-09T12:14:29.770Z,13936
2017-09-09T12:15:31.663Z,13492
2017-09-09T12:16:33.574Z,13324
2017-09-09T12:17:35.708Z,13284
2017-09-09T12:18:37.545Z,13172
2017-09-09T12:19:39.378Z,12896
2017-09-09T12:20:41.274Z,12604
2017-09-09T12:21:43.171Z,12376
2017-09-09T12:22:45.069Z,12308
2017-09-09T12:23:59.239Z,12384
2017-09-09T12:25:01.137Z,12504
2017-09-09T12:26:03.038Z,12664
2017-09-09T12:27:04.936Z,12788
2017-09-09T12:28:06.827Z,12832
2017-09-09T12:29:08.626Z,12928
2017-09-09T12:30:10.521Z,12916
2017-09-09T12:31:12.417Z,12812
2017-09-09T12:32:14.711Z,12644
2017-09-09T12:33:28.965Z,12540
2017-09-09T12:34:30.918Z,12620
2017-09-09T12:35:32.793Z,12732
2017-09-09T12:36:34.711Z,12804
2017-09-09T12:37:36.550Z,12820
2017-09-09T12:38:38.383Z,12908
2017-09-09T12:39:40.284Z,13088
2017-09-09T12:40:42.181Z,13256
2017-09-09T12:41:44.077Z,13232
2017-09-09T12:42:58.311Z,13104
2017-09-09T12:44:00.202Z,13040
2017-09-09T12:45:02.103Z,12948
2017-09-09T12:46:04.003Z,12968
2017-09-09T12:47:06.227Z,12940
2017-09-09T12:48:08.143Z,12888
2017-09-09T12:49:10.039Z,12900
2017-09-09T12:50:12.318Z,12872
2017-09-09T12:51:14.180Z,12716
2017-09-09T12:52:28.351Z,12712
2017-09-09T12:53:30.253Z,12728
2017-09-09T12:54:32.156Z,12828
2017-09-09T12:55:34.050Z,12988
2017-09-09T12:56:35.884Z,13228
2017-09-09T12:57:37.726Z,13488
2017-09-09T12:58:39.624Z,13456
2017-09-09T12:59:41.527Z,13184
2017-09-09T13:00:43.422Z,12900
2017-09-09T13:01:57.602Z,12636
2017-09-09T13:02:59.498Z,12880
2017-09-09T13:04:01.395Z,13256
2017-09-09T13:05:03.294Z,13324
2017-09-09T13:06:05.128Z,13132
2017-09-09T13:07:06.960Z,13084
2017-09-09T13:08:08.858Z,13188
2017-09-09T13:09:10.756Z,13312
2017-09-09T13:10:12.650Z,13208
2017-09-09T13:11:26.830Z,13264
2017-09-09T13:12:28.727Z,13216
2017-09-09T13:13:30.640Z,13036
2017-09-09T13:14:32.541Z,12856
2017-09-09T13:15:34.378Z,12872
2017-09-09T13:16:36.207Z,13056
2017-09-09T13:17:38.115Z,13200
2017-09-09T13:18:40.016Z,12932
2017-09-09T13:19:41.910Z,12500
2017-09-09T13:20:56.081Z,12236
2017-09-09T13:21:57.978Z,11812
2017-09-09T13:22:59.876Z,11288
2017-09-09T13:24:01.777Z,11228
2017-09-09T13:25:03.611Z,11172
2017-09-09T13:26:05.444Z,11128
2017-09-09T13:27:07.300Z,11076
2017-09-09T13:28:09.134Z,11100
2017-09-09T13:29:10.965Z,11268
2017-09-09T13:30:25.170Z,11256
2017-09-09T13:31:27.067Z,11252
2017-09-09T13:32:28.968Z,11272
2017-09-09T13:33:30.868Z,11116
2017-09-09T13:34:32.703Z,10844
2017-09-09T13:35:34.564Z,10660
2017-09-09T13:36:36.436Z,10500
2017-09-09T13:37:38.341Z,10344
2017-09-09T13:38:40.239Z,10136
2017-09-09T13:39:54.408Z,9852
2017-09-09T13:40:56.302Z,9660
2017-09-09T13:41:58.203Z,9512
2017-09-09T13:43:00.102Z,9368
2017-09-09T13:44:01.940Z,9244
2017-09-09T13:45:03.771Z,9180
2017-09-09T13:46:05.667Z,9180
2017-09-09T13:47:07.570Z,9196
2017-09-09T13:48:09.458Z,9172
2017-09-09T13:49:23.637Z,9000
2017-09-09T13:50:25.535Z,8864
2017-09-09T13:51:27.432Z,8780
2017-09-09T13:52:29.332Z,8752
2017-09-09T13:53:31.165Z,8680
2017-09-09T13:54:32.998Z,8624
2017-09-09T13:55:34.899Z,8528
2017-09-09T13:56:36.797Z,8356
2017-09-09T13:57:38.693Z,8144
2017-09-09T13:58:52.864Z,7940
2017-09-09T13:59:54.762Z,7812
2017-09-09T14:00:56.670Z,7696
2017-09-09T14:01:58.560Z,7652
2017-09-09T14:03:00.393Z,7684
2017-09-09T14:04:02.224Z,7808
2017-09-09T14:05:04.122Z,7980
2017-09-09T14:06:06.019Z,8172
2017-09-09T14:07:07.916Z,8328
2017-09-09T14:08:22.082Z,8448
2017-09-09T14:09:23.977Z,8548
2017-09-09T14:10:25.871Z,8628
2017-09-09T14:11:27.769Z,8732
2017-09-09T14:12:29.608Z,8744
2017-09-09T14:13:31.438Z,8580
2017-09-09T14:14:33.334Z,8384
2017-09-09T14:15:35.232Z,8176
2017-09-09T14:16:37.129Z,7984
2017-09-09T14:17:51.298Z,7872